Time;durP1;ratioP1;P1;durP2;ratioP2;P2;SDS_P1;SDS_P2;PMS_P1;PMS_P2;Temp;Humidity;BMP_temperature;BMP_pressure;BME280_temperature;BME280_humidity;BME280_pressure;Samples;Min_cycle;Max_cycle;Signal;HPM_P1;HPM_P2
2023/04/29 00:00:42;;;;;;;2.10;1.63;;;;;;;12.67;100.00;95933.56;5036894;28;20232;-69
2023/04/29 00:03:09;;;;;;;1.90;1.40;;;;;;;12.65;100.00;95939.00;5037229;28;20193;-69
2023/04/29 00:05:35;;;;;;;1.40;1.30;;;;;;;12.62;100.00;95939.41;5038622;28;20228;-70
2023/04/29 00:08:03;;;;;;;1.70;0.90;;;;;;;12.68;100.00;95940.44;5036247;28;20237;-69
2023/04/29 00:10:30;;;;;;;2.03;1.30;;;;;;;12.60;100.00;95937.97;5036627;28;20221;-68
2023/04/29 00:12:56;;;;;;;4.18;1.20;;;;;;;12.62;100.00;95938.63;5037028;28;20201;-69
2023/04/29 00:15:23;;;;;;;2.23;1.57;;;;;;;12.49;100.00;95936.72;5037166;28;20235;-69
2023/04/29 00:17:50;;;;;;;2.67;1.80;;;;;;;12.55;100.00;95938.59;5035454;28;20205;-69
2023/04/29 00:20:17;;;;;;;0.70;0.70;;;;;;;12.48;100.00;95934.28;5037003;28;20197;-70
2023/04/29 00:22:44;;;;;;;1.70;1.40;;;;;;;12.43;100.00;95926.91;5036814;28;20216;-69
2023/04/29 00:25:10;;;;;;;1.15;1.13;;;;;;;12.46;100.00;95921.25;5036870;28;20221;-68
2023/04/29 00:27:38;;;;;;;2.58;1.42;;;;;;;12.48;100.00;95927.16;5035766;28;20213;-69
2023/04/29 00:30:06;;;;;;;1.08;1.00;;;;;;;12.52;100.00;95930.22;5036154;28;20382;-69
2023/04/29 00:32:32;;;;;;;2.60;1.07;;;;;;;12.42;100.00;95930.59;5036219;28;20201;-69
2023/04/29 00:35:00;;;;;;;2.33;1.00;;;;;;;12.49;100.00;95931.44;5036501;28;20229;-68
2023/04/29 00:37:27;;;;;;;1.05;0.85;;;;;;;12.35;100.00;95935.00;5036215;28;20213;-69
2023/04/29 00:39:53;;;;;;;1.33;1.02;;;;;;;12.41;100.00;95931.59;5035935;28;20221;-70
2023/04/29 00:42:20;;;;;;;0.80;0.60;;;;;;;12.43;100.00;95929.56;5036810;28;20213;-70
2023/04/29 00:44:47;;;;;;;3.67;1.83;;;;;;;12.43;100.00;95932.19;5036271;28;20244;-69
2023/04/29 00:47:13;;;;;;;1.30;1.20;;;;;;;12.43;100.00;95934.03;5036034;28;20236;-69
2023/04/29 00:49:40;;;;;;;1.75;1.45;;;;;;;12.42;100.00;95927.13;5035960;28;20209;-69
2023/04/29 00:52:08;;;;;;;1.50;1.30;;;;;;;12.44;100.00;95933.84;5036260;28;20229;-69
2023/04/29 00:54:35;;;;;;;1.02;0.95;;;;;;;12.42;100.00;95935.88;5035289;28;20232;-69
2023/04/29 00:57:01;;;;;;;1.40;1.10;;;;;;;12.41;100.00;95922.84;5036095;28;20229;-70
2023/04/29 00:59:31;;;;;;;0.93;0.93;;;;;;;12.39;100.00;95930.97;5035391;28;20205;-69
2023/04/29 01:01:59;;;;;;;2.10;1.23;;;;;;;12.36;100.00;95926.09;5035826;28;20211;-69
2023/04/29 01:04:25;;;;;;;2.27;1.17;;;;;;;12.33;100.00;95923.84;5035370;28;20826;-69
2023/04/29 01:07:01;;;;;;;1.15;1.02;;;;;;;12.41;100.00;95934.25;5036519;28;20220;-69
2023/04/29 01:09:50;;;;;;;0.80;0.80;;;;;;;12.37;100.00;95933.00;5035241;28;20200;-69
2023/04/29 01:12:22;;;;;;;1.10;1.00;;;;;;;12.32;100.00;95932.78;5034362;28;20205;-70
2023/04/29 01:15:01;;;;;;;0.93;0.80;;;;;;;12.35;100.00;95940.28;5036135;28;20740;-69
2023/04/29 01:17:36;;;;;;;1.30;1.08;;;;;;;12.31;100.00;95927.69;5034942;28;20209;-70
2023/04/29 01:20:04;;;;;;;1.13;1.00;;;;;;;12.27;100.00;95934.34;5035160;28;21733;-69
2023/04/29 01:22:30;;;;;;;1.85;1.23;;;;;;;12.26;100.00;95935.38;5036054;28;20197;-69
2023/04/29 01:24:58;;;;;;;2.05;1.85;;;;;;;12.26;100.00;95938.03;5034517;28;20225;-70
2023/04/29 01:27:30;;;;;;;0.75;0.75;;;;;;;12.27;100.00;95948.38;5034917;28;20197;-70
2023/04/29 01:30:02;;;;;;;1.02;0.95;;;;;;;12.26;100.00;95946.75;5035095;28;20237;-70
2023/04/29 01:32:37;;;;;;;0.95;0.80;;;;;;;12.31;100.00;95949.63;5035635;28;20216;-70
2023/04/29 01:35:14;;;;;;;2.50;1.60;;;;;;;12.37;100.00;95951.50;5034747;28;20783;-70
2023/04/29 01:37:52;;;;;;;1.33;1.20;;;;;;;12.42;100.00;95950.91;5035180;28;20287;-69
2023/04/29 01:40:25;;;;;;;1.27;1.10;;;;;;;12.39;100.00;95946.81;5035186;28;20205;-69
2023/04/29 01:43:00;;;;;;;1.63;1.50;;;;;;;12.26;100.00;95949.38;5035546;28;20201;-69
2023/04/29 01:45:28;;;;;;;8.77;1.13;;;;;;;12.24;100.00;95943.50;5035340;28;20228;-68
2023/04/29 01:47:55;;;;;;;0.93;0.93;;;;;;;12.16;100.00;95941.00;5035384;28;20205;-69
2023/04/29 01:50:22;;;;;;;3.03;1.03;;;;;;;12.12;100.00;95938.94;5035139;28;20708;-69
2023/04/29 01:52:48;;;;;;;1.30;1.13;;;;;;;12.16;100.00;95934.91;5035939;28;20208;-69
2023/04/29 01:55:15;;;;;;;3.20;2.00;;;;;;;12.16;100.00;95935.72;5035538;28;20241;-70
2023/04/29 01:57:43;;;;;;;1.70;1.10;;;;;;;12.28;100.00;95942.09;5034652;28;20605;-69
2023/04/29 02:00:11;;;;;;;2.83;1.00;;;;;;;12.20;100.00;95931.66;5035436;28;20311;-69
2023/04/29 02:02:38;;;;;;;1.52;1.17;;;;;;;12.13;100.00;95937.09;5035122;28;20263;-69
2023/04/29 02:05:04;;;;;;;1.25;0.95;;;;;;;12.14;100.00;95936.09;5035318;28;20231;-69
2023/04/29 02:07:31;;;;;;;29.67;11.45;;;;;;;12.29;100.00;95940.25;5033815;28;21122;-69
2023/04/29 02:09:57;;;;;;;7.43;3.72;;;;;;;12.34;100.00;95933.38;5035170;28;20741;-69
2023/04/29 02:12:24;;;;;;;5.60;1.83;;;;;;;12.29;100.00;95934.97;5034593;28;20217;-69
2023/04/29 02:14:53;;;;;;;3.87;1.80;;;;;;;12.47;100.00;95938.72;5034820;28;20221;-69
2023/04/29 02:17:20;;;;;;;2.38;0.88;;;;;;;12.55;100.00;95938.59;5034138;28;21122;-69
2023/04/29 02:19:46;;;;;;;2.03;1.65;;;;;;;12.65;100.00;95935.56;5035453;28;20696;-70
2023/04/29 02:22:14;;;;;;;2.80;2.20;;;;;;;12.67;100.00;95938.84;5035106;28;20656;-69
2023/04/29 02:24:40;;;;;;;1.35;1.17;;;;;;;12.68;100.00;95940.44;5034310;28;20713;-69
2023/04/29 02:27:07;;;;;;;2.10;1.70;;;;;;;12.57;100.00;95936.53;5035538;28;20201;-70
2023/04/29 02:29:33;;;;;;;2.97;2.23;;;;;;;12.74;100.00;95940.50;5035577;28;20205;-69
2023/04/29 02:32:01;;;;;;;2.93;1.87;;;;;;;12.76;100.00;95949.84;5034141;28;20228;-69
2023/04/29 02:34:28;;;;;;;3.80;2.33;;;;;;;12.83;100.00;95941.97;5034748;28;20224;-70
2023/04/29 02:36:54;;;;;;;4.00;2.07;;;;;;;12.81;100.00;95942.13;5033857;28;20214;-69
2023/04/29 02:39:21;;;;;;;6.40;3.00;;;;;;;12.81;100.00;95941.34;5036347;28;20209;-69
2023/04/29 02:41:47;;;;;;;2.17;1.60;;;;;;;12.83;100.00;95947.25;5037418;28;20197;-70
2023/04/29 02:44:14;;;;;;;3.83;1.73;;;;;;;12.89;100.00;95943.84;5039508;28;20232;-69
2023/04/29 02:46:44;;;;;;;3.35;2.38;;;;;;;12.93;100.00;95945.06;5038548;28;20205;-69
2023/04/29 02:49:12;;;;;;;3.85;1.88;;;;;;;13.01;100.00;95939.63;5037579;28;20678;-69
2023/04/29 02:51:38;;;;;;;1.80;1.60;;;;;;;12.91;100.00;95939.97;5038493;28;20231;-68
2023/04/29 02:54:05;;;;;;;4.97;2.63;;;;;;;12.97;100.00;95938.38;5037397;28;20221;-69
2023/04/29 02:56:32;;;;;;;4.67;2.23;;;;;;;13.01;100.00;95936.97;5038257;28;20680;-70
2023/04/29 02:58:58;;;;;;;9.15;2.53;;;;;;;13.07;100.00;95946.75;5038042;28;20212;-70
2023/04/29 03:01:25;;;;;;;3.90;2.27;;;;;;;13.04;100.00;95941.88;5038883;28;20198;-69
2023/04/29 03:03:52;;;;;;;5.35;2.10;;;;;;;13.10;100.00;95941.88;5037632;28;20209;-69
2023/04/29 03:06:20;;;;;;;4.88;2.92;;;;;;;13.24;100.00;95940.91;5038189;28;20201;-70
2023/04/29 03:08:46;;;;;;;5.67;2.63;;;;;;;13.09;100.00;95940.25;5037922;28;20205;-69
2023/04/29 03:11:13;;;;;;;3.28;2.17;;;;;;;13.17;100.00;95941.91;5037853;28;20228;-69
2023/04/29 03:13:39;;;;;;;8.07;3.03;;;;;;;13.18;100.00;95946.97;5037697;28;20209;-69
2023/04/29 03:16:07;;;;;;;3.72;2.63;;;;;;;13.18;100.00;95938.25;5037866;28;20740;-69
2023/04/29 03:18:33;;;;;;;6.47;3.22;;;;;;;13.18;100.00;95936.41;5036904;28;20201;-70
2023/04/29 03:21:00;;;;;;;6.93;4.18;;;;;;;13.27;100.00;95931.75;5037883;28;20212;-69
2023/04/29 03:23:28;;;;;;;6.53;3.05;;;;;;;13.37;100.00;95930.34;5037969;28;20201;-69
2023/04/29 03:25:54;;;;;;;5.55;2.65;;;;;;;13.38;100.00;95934.63;5037024;28;20236;-70
2023/04/29 03:28:21;;;;;;;4.72;2.83;;;;;;;13.42;100.00;95938.50;5037516;28;20197;-69
2023/04/29 03:30:47;;;;;;;8.35;3.08;;;;;;;13.36;100.00;95938.47;5038196;28;20574;-69
2023/04/29 03:33:14;;;;;;;5.47;3.10;;;;;;;13.37;100.00;95926.88;5037834;28;20205;-69
2023/04/29 03:35:40;;;;;;;4.22;2.47;;;;;;;13.35;100.00;95926.25;5037522;28;20220;-70
2023/04/29 03:38:07;;;;;;;6.50;3.15;;;;;;;13.35;100.00;95928.91;5037241;28;20201;-69
2023/04/29 03:40:35;;;;;;;8.13;3.50;;;;;;;13.43;100.00;95919.75;5038528;28;20220;-68
2023/04/29 03:43:02;;;;;;;6.07;2.83;;;;;;;13.40;100.00;95929.91;5037251;28;20208;-70
2023/04/29 03:45:28;;;;;;;6.00;2.88;;;;;;;13.37;100.00;95926.88;5036679;28;20243;-69
2023/04/29 03:47:55;;;;;;;4.70;2.60;;;;;;;13.39;100.00;95930.97;5037019;28;20201;-70
2023/04/29 03:50:23;;;;;;;6.72;2.90;;;;;;;13.52;100.00;95918.53;5036473;28;20576;-70
2023/04/29 03:52:49;;;;;;;7.30;3.13;;;;;;;13.49;100.00;95926.91;5037323;28;20225;-70
2023/04/29 03:55:16;;;;;;;5.22;2.78;;;;;;;13.34;100.00;95922.81;5037094;28;20228;-70
2023/04/29 03:57:44;;;;;;;4.18;2.63;;;;;;;13.46;100.00;95929.13;5036808;28;20577;-69
2023/04/29 04:00:11;;;;;;;3.08;2.33;;;;;;;13.52;100.00;95931.78;5037193;28;20205;-70
2023/04/29 04:02:37;;;;;;;4.25;2.38;;;;;;;13.44;100.00;95929.34;5037746;28;20208;-68
2023/04/29 04:05:04;;;;;;;4.20;2.30;;;;;;;13.37;100.00;95940.13;5036815;28;20225;-69
2023/04/29 04:07:31;;;;;;;5.50;2.72;;;;;;;13.52;100.00;95936.28;5036642;28;20208;-70
2023/04/29 04:09:57;;;;;;;8.77;4.90;;;;;;;13.46;100.00;95932.56;5037048;28;20673;-69
2023/04/29 04:12:24;;;;;;;4.50;2.97;;;;;;;13.44;100.00;95939.09;5037028;28;20236;-70
2023/04/29 04:14:52;;;;;;;7.68;3.53;;;;;;;13.54;100.00;95944.81;5036520;28;20311;-69
2023/04/29 04:17:19;;;;;;;6.35;3.20;;;;;;;13.48;100.00;95941.16;5035978;28;20869;-69
2023/04/29 04:19:45;;;;;;;6.22;2.60;;;;;;;13.41;100.00;95939.50;5037530;28;20201;-70
2023/04/29 04:22:12;;;;;;;6.53;3.40;;;;;;;13.47;100.00;95954.59;5036701;28;20197;-69
2023/04/29 04:24:38;;;;;;;6.55;3.67;;;;;;;13.55;100.00;95949.09;5035818;28;20248;-69
2023/04/29 04:27:06;;;;;;;9.02;4.88;;;;;;;13.41;100.00;95950.88;5036986;28;20204;-69
2023/04/29 04:29:32;;;;;;;10.15;4.60;;;;;;;13.37;100.00;95956.00;5035894;28;20664;-69
2023/04/29 04:32:00;;;;;;;5.97;3.35;;;;;;;13.50;100.00;95955.00;5036570;28;20233;-69
2023/04/29 04:34:26;;;;;;;7.82;3.67;;;;;;;13.52;100.00;95957.44;5036223;28;20685;-69
2023/04/29 04:36:53;;;;;;;4.32;2.42;;;;;;;13.55;100.00;95951.75;5036422;28;20227;-69
2023/04/29 04:39:19;;;;;;;6.55;3.17;;;;;;;13.56;100.00;95962.13;5036093;28;20209;-69
2023/04/29 04:41:46;;;;;;;3.70;2.83;;;;;;;13.59;100.00;95959.09;5035911;28;20820;-69
2023/04/29 04:44:13;;;;;;;3.17;2.08;;;;;;;13.59;100.00;95963.56;5036446;28;20679;-69
2023/04/29 04:46:39;;;;;;;3.50;2.28;;;;;;;13.62;100.00;95968.44;5036183;28;20211;-69
2023/04/29 04:49:07;;;;;;;6.47;3.45;;;;;;;13.68;100.00;95963.19;5035677;28;20688;-69
2023/04/29 04:51:34;;;;;;;7.80;3.15;;;;;;;13.65;100.00;95965.41;5035855;28;20240;-70
2023/04/29 04:54:00;;;;;;;9.75;2.85;;;;;;;13.67;100.00;95969.47;5035312;28;20232;-70
2023/04/29 04:56:27;;;;;;;7.32;3.42;;;;;;;13.66;100.00;95969.69;5036138;28;20197;-70
2023/04/29 04:58:53;;;;;;;5.95;2.65;;;;;;;13.66;100.00;95974.97;5035828;28;20209;-70
2023/04/29 05:01:20;;;;;;;5.68;3.30;;;;;;;13.62;100.00;95974.56;5034994;28;20205;-69
2023/04/29 05:03:46;;;;;;;10.63;3.60;;;;;;;13.56;100.00;95978.00;5035993;28;20201;-69
2023/04/29 05:06:14;;;;;;;4.40;3.22;;;;;;;13.73;100.00;95975.78;5036448;28;20208;-69
2023/04/29 05:08:41;;;;;;;5.80;3.67;;;;;;;13.65;100.00;95987.38;5034808;28;20212;-70
2023/04/29 05:11:16;;;;;;;5.43;3.50;;;;;;;13.86;100.00;95981.94;5035882;28;20231;-69
2023/04/29 05:13:42;;;;;;;7.22;3.47;;;;;;;13.74;100.00;95978.22;5035821;28;20220;-69
2023/04/29 05:16:09;;;;;;;6.20;3.13;;;;;;;13.86;100.00;95983.75;5036203;28;20198;-69
2023/04/29 05:18:35;;;;;;;7.63;3.65;;;;;;;13.91;100.00;95982.09;5034550;28;20673;-69
2023/04/29 05:21:01;;;;;;;4.30;2.85;;;;;;;13.94;100.00;95992.31;5035690;28;20205;-69
2023/04/29 05:23:29;;;;;;;3.90;2.42;;;;;;;13.97;100.00;95989.25;5035055;28;20201;-69
2023/04/29 05:25:56;;;;;;;7.20;2.70;;;;;;;14.06;100.00;95988.03;5035810;28;20221;-69
2023/04/29 05:28:22;;;;;;;6.55;3.15;;;;;;;14.17;100.00;95995.41;5035142;28;20212;-69
2023/04/29 05:30:51;;;;;;;4.50;2.90;;;;;;;14.40;100.00;95996.59;5035394;28;20697;-69
2023/04/29 05:33:18;;;;;;;4.97;2.10;;;;;;;14.31;100.00;95995.19;5035001;28;20228;-69
2023/04/29 05:35:44;;;;;;;5.13;3.38;;;;;;;14.50;100.00;95996.16;5034890;28;21140;-69
2023/04/29 05:38:11;;;;;;;4.88;2.78;;;;;;;14.46;100.00;96000.25;5035671;28;20266;-69
2023/04/29 05:40:39;;;;;;;4.93;3.05;;;;;;;14.53;100.00;96006.38;5035514;28;20212;-69
2023/04/29 05:43:06;;;;;;;6.72;2.90;;;;;;;14.51;100.00;96013.72;5034515;28;20198;-69
2023/04/29 05:45:32;;;;;;;6.35;2.97;;;;;;;14.46;100.00;96013.50;5035538;28;20252;-69
2023/04/29 05:47:59;;;;;;;4.03;2.47;;;;;;;14.49;100.00;96016.56;5035751;28;20688;-69
2023/04/29 05:50:25;;;;;;;6.10;2.78;;;;;;;14.41;100.00;96015.97;5034007;28;20208;-69
2023/04/29 05:52:53;;;;;;;4.50;2.10;;;;;;;14.37;100.00;96020.88;5034861;28;20238;-69
2023/04/29 05:55:20;;;;;;;8.30;4.40;;;;;;;14.36;100.00;96015.78;5035776;28;20228;-69
2023/04/29 05:57:48;;;;;;;3.80;2.60;;;;;;;14.48;100.00;96030.03;5034669;28;20205;-69
2023/04/29 06:00:14;;;;;;;5.18;2.88;;;;;;;14.23;100.00;96031.66;5034455;28;20212;-69
2023/04/29 06:02:41;;;;;;;4.05;3.28;;;;;;;14.41;100.00;96030.06;5035757;28;20201;-69
2023/04/29 06:05:09;;;;;;;4.07;2.72;;;;;;;14.47;100.00;96031.06;5034839;28;20267;-69
2023/04/29 06:07:35;;;;;;;6.65;3.45;;;;;;;14.52;100.00;96031.25;5034194;28;20404;-69
2023/04/29 06:10:02;;;;;;;5.80;2.78;;;;;;;14.52;100.00;96033.91;5035601;28;20216;-69
2023/04/29 06:12:29;;;;;;;3.10;2.35;;;;;;;14.59;100.00;96040.00;5034770;28;20220;-69
2023/04/29 06:14:57;;;;;;;5.88;2.72;;;;;;;14.72;100.00;96040.81;5039035;28;20837;-69
2023/04/29 06:17:24;;;;;;;7.60;3.60;;;;;;;14.66;100.00;96037.16;5039205;28;20216;-69
2023/04/29 06:19:50;;;;;;;7.18;3.25;;;;;;;14.72;100.00;96038.97;5038136;28;20208;-69
2023/04/29 06:22:17;;;;;;;6.57;2.75;;;;;;;14.64;100.00;96049.81;5039386;28;20193;-69
2023/04/29 06:24:43;;;;;;;6.47;2.67;;;;;;;14.62;100.00;96051.03;5038545;28;20221;-69
2023/04/29 06:27:10;;;;;;;3.20;2.70;;;;;;;14.65;100.00;96054.09;5039605;28;20220;-69
2023/04/29 06:29:36;;;;;;;4.55;2.65;;;;;;;14.76;100.00;96055.28;5037779;28;20232;-69
2023/04/29 06:32:04;;;;;;;5.28;3.00;;;;;;;14.93;100.00;96052.00;5038694;28;20224;-69
2023/04/29 06:34:31;;;;;;;6.35;2.72;;;;;;;14.96;100.00;96056.88;5038414;28;20692;-69
2023/04/29 06:36:57;;;;;;;4.35;3.08;;;;;;;15.03;100.00;96057.69;5038700;28;20692;-70
2023/04/29 06:39:24;;;;;;;4.07;2.85;;;;;;;15.07;100.00;96061.56;5038192;28;20205;-70
2023/04/29 06:41:50;;;;;;;2.55;2.03;;;;;;;15.10;100.00;96069.09;5039083;28;20205;-69
2023/04/29 06:44:18;;;;;;;4.45;2.20;;;;;;;15.09;100.00;96061.34;5038768;28;20313;-70
2023/04/29 06:46:44;;;;;;;4.20;2.45;;;;;;;15.11;100.00;96059.28;5038352;28;20316;-70
2023/04/29 06:49:12;;;;;;;4.07;2.45;;;;;;;15.16;100.00;96052.34;5038773;28;20205;-70
2023/04/29 06:51:39;;;;;;;4.35;2.47;;;;;;;15.06;100.00;96054.63;5037457;28;20201;-69
2023/04/29 06:54:05;;;;;;;6.03;3.28;;;;;;;14.95;100.00;96049.94;5038197;28;21131;-69
2023/04/29 06:56:32;;;;;;;1.73;1.35;;;;;;;15.10;100.00;96058.47;5038716;28;20205;-70
2023/04/29 06:58:58;;;;;;;7.22;2.65;;;;;;;15.19;100.00;96059.09;5037858;28;20205;-70
2023/04/29 07:01:25;;;;;;;4.97;2.17;;;;;;;15.34;100.00;96065.78;5038000;28;20205;-70
2023/04/29 07:03:51;;;;;;;2.45;2.00;;;;;;;15.41;100.00;96062.09;5038035;28;20198;-70
2023/04/29 07:06:19;;;;;;;2.17;1.77;;;;;;;15.48;100.00;96062.06;5038547;28;20197;-70
2023/04/29 07:08:45;;;;;;;3.72;2.25;;;;;;;15.49;100.00;96063.66;5037547;28;20202;-70
2023/04/29 07:11:13;;;;;;;3.03;1.73;;;;;;;15.72;100.00;96066.63;5038455;28;20208;-70
2023/04/29 07:13:39;;;;;;;5.72;1.45;;;;;;;15.70;100.00;96066.03;5037700;28;20225;-70
2023/04/29 07:16:14;;;;;;;4.63;2.28;;;;;;;15.77;100.00;96067.63;5037553;28;20690;-70
2023/04/29 07:18:40;;;;;;;2.22;1.48;;;;;;;15.89;100.00;96069.38;5037394;28;20208;-70
2023/04/29 07:21:07;;;;;;;1.73;1.13;;;;;;;15.81;100.00;96071.50;5037697;28;20201;-70
2023/04/29 07:23:35;;;;;;;2.03;1.25;;;;;;;15.99;100.00;96072.41;5037369;28;20209;-70
2023/04/29 07:26:09;;;;;;;1.98;1.23;;;;;;;15.95;100.00;96071.19;5036592;28;20225;-70
2023/04/29 07:28:35;;;;;;;7.20;1.60;;;;;;;16.20;100.00;96080.00;5037444;28;20208;-70
2023/04/29 07:31:02;;;;;;;1.50;1.38;;;;;;;15.85;100.00;96075.34;5037961;28;20200;-70
2023/04/29 07:33:28;;;;;;;1.48;1.27;;;;;;;16.16;100.00;96078.81;5037198;28;20221;-71
2023/04/29 07:35:55;;;;;;;1.27;1.13;;;;;;;16.30;100.00;96080.38;5037164;28;20240;-70
2023/04/29 07:38:21;;;;;;;1.77;1.35;;;;;;;16.41;100.00;96084.19;5037043;28;20209;-70
2023/04/29 07:40:49;;;;;;;1.85;1.60;;;;;;;16.34;100.00;96075.47;5036096;28;20220;-70
2023/04/29 07:43:16;;;;;;;2.33;1.15;;;;;;;16.52;100.00;96081.66;5037546;28;20278;-70
2023/04/29 07:45:42;;;;;;;1.98;1.15;;;;;;;15.93;100.00;96094.50;5037621;28;20241;-70
2023/04/29 07:48:09;;;;;;;2.58;1.65;;;;;;;15.77;100.00;96093.38;5036884;28;20212;-70
2023/04/29 07:50:36;;;;;;;1.30;1.20;;;;;;;15.54;100.00;96091.25;5037592;28;20874;-70
2023/04/29 07:53:02;;;;;;;2.53;1.38;;;;;;;15.43;100.00;96096.41;5036772;28;20773;-70
2023/04/29 07:55:29;;;;;;;1.75;1.17;;;;;;;15.28;100.00;96103.78;5037356;28;20221;-70
2023/04/29 07:57:57;;;;;;;1.10;1.00;;;;;;;15.28;100.00;96099.28;5036753;28;20215;-69
2023/04/29 08:00:26;;;;;;;1.30;0.98;;;;;;;15.25;100.00;96102.38;5036446;28;21239;-69
2023/04/29 08:02:53;;;;;;;1.45;1.10;;;;;;;15.45;100.00;96102.28;5037308;28;20300;-69
2023/04/29 08:05:20;;;;;;;1.73;1.58;;;;;;;15.74;100.00;96101.78;5037180;28;20579;-69
2023/04/29 08:07:47;;;;;;;1.15;0.93;;;;;;;15.80;100.00;96103.59;5036400;28;20205;-69
2023/04/29 08:10:14;;;;;;;0.80;0.80;;;;;;;15.67;98.28;96103.63;5037788;28;20199;-69
2023/04/29 08:12:40;;;;;;;0.63;0.50;;;;;;;15.86;99.28;96104.38;5037733;28;20229;-69
2023/04/29 08:15:09;;;;;;;0.75;0.70;;;;;;;16.23;100.00;96108.84;5037112;28;20323;-69
2023/04/29 08:17:35;;;;;;;2.15;1.15;;;;;;;16.28;94.44;96109.06;5035870;28;20583;-69
2023/04/29 08:20:02;;;;;;;0.88;0.88;;;;;;;16.34;93.13;96113.50;5036903;28;20205;-69
2023/04/29 08:22:29;;;;;;;9.85;1.48;;;;;;;16.59;95.62;96107.16;5037078;28;20568;-69
2023/04/29 08:24:56;;;;;;;0.43;0.43;;;;;;;16.51;94.09;96114.63;5036290;28;20308;-69
2023/04/29 08:27:22;;;;;;;1.27;0.90;;;;;;;16.61;98.79;96112.28;5035856;28;20292;-69
2023/04/29 08:29:49;;;;;;;1.40;0.80;;;;;;;16.71;94.19;96123.25;5037030;28;20232;-69
2023/04/29 08:32:17;;;;;;;0.70;0.65;;;;;;;16.79;91.07;96110.50;5036281;28;20291;-70
2023/04/29 08:34:44;;;;;;;0.93;0.70;;;;;;;16.71;88.37;96115.28;5036328;28;20217;-69
2023/04/29 08:37:10;;;;;;;0.60;0.60;;;;;;;16.84;89.02;96112.50;5036619;28;21133;-70
2023/04/29 08:39:37;;;;;;;1.40;0.93;;;;;;;16.96;93.01;96124.06;5035737;28;20216;-69
2023/04/29 08:42:08;;;;;;;1.83;1.00;;;;;;;16.67;91.28;96122.06;5036401;28;20696;-69
2023/04/29 08:44:35;;;;;;;1.60;0.95;;;;;;;16.62;91.37;96116.56;5036835;28;20224;-69
2023/04/29 08:47:02;;;;;;;1.20;0.98;;;;;;;16.76;83.75;96124.25;5036042;28;20211;-69
2023/04/29 08:49:31;;;;;;;0.63;0.50;;;;;;;16.51;84.22;96120.75;5035018;28;20208;-70
2023/04/29 08:51:57;;;;;;;2.65;1.17;;;;;;;16.60;84.41;96121.31;5036283;28;20201;-68
2023/04/29 08:54:24;;;;;;;0.93;0.88;;;;;;;16.57;87.75;96129.69;5036336;28;20312;-71
2023/04/29 08:56:52;;;;;;;1.27;0.93;;;;;;;16.89;87.63;96129.47;5036406;28;20215;-72
2023/04/29 08:59:20;;;;;;;0.60;0.60;;;;;;;16.98;85.15;96125.47;5035184;28;20218;-72
2023/04/29 09:01:51;;;;;;;3.60;1.80;;;;;;;17.24;85.27;96123.41;5035973;28;20208;-68
2023/04/29 09:04:27;;;;;;;0.95;0.82;;;;;;;16.98;81.15;96129.97;5035580;28;20735;-71
2023/04/29 09:06:59;;;;;;;0.65;0.60;;;;;;;17.33;80.56;96126.59;5036164;28;20209;-68
2023/04/29 09:09:26;;;;;;;0.65;0.65;;;;;;;17.53;80.97;96127.22;5035266;28;20586;-72
2023/04/29 09:11:54;;;;;;;0.77;0.60;;;;;;;17.57;78.08;96126.53;5034751;28;20205;-71
2023/04/29 09:14:22;;;;;;;1.25;0.73;;;;;;;17.41;77.24;96129.78;5035577;28;20236;-69
2023/04/29 09:16:49;;;;;;;0.70;0.60;;;;;;;17.51;76.32;96124.75;5035422;28;20669;-72
2023/04/29 09:19:30;;;;;;;0.60;0.60;;;;;;;17.73;82.76;96128.56;5033407;28;20582;-70
2023/04/29 09:21:58;;;;;;;0.57;0.57;;;;;;;17.56;77.16;96130.22;5033921;28;20614;-72
2023/04/29 09:24:26;;;;;;;0.73;0.73;;;;;;;17.72;74.15;96117.13;5035562;28;20225;-70
2023/04/29 09:26:53;;;;;;;1.55;0.60;;;;;;;17.53;71.75;96127.22;5034444;28;20263;-68
2023/04/29 09:29:19;;;;;;;0.88;0.80;;;;;;;17.59;73.75;96132.47;5034873;28;20542;-69
2023/04/29 09:31:46;;;;;;;1.88;0.70;;;;;;;17.60;75.13;96123.41;5034843;28;20228;-71
2023/04/29 09:34:14;;;;;;;1.00;0.88;;;;;;;17.93;81.98;96121.16;5034737;28;20912;-68
2023/04/29 09:36:44;;;;;;;0.80;0.70;;;;;;;17.88;80.85;96121.84;5034303;28;20201;-70
2023/04/29 09:39:14;;;;;;;1.23;0.70;;;;;;;17.93;79.81;96126.50;5034957;28;20394;-69
2023/04/29 09:41:42;;;;;;;0.82;0.70;;;;;;;17.73;76.92;96120.59;5035372;28;20197;-68
2023/04/29 09:44:10;;;;;;;1.13;1.00;;;;;;;17.74;77.12;96120.38;5035787;28;20224;-71
2023/04/29 09:46:37;;;;;;;1.17;0.93;;;;;;;18.02;77.90;96127.81;5035112;28;20727;-68
2023/04/29 09:49:05;;;;;;;1.63;0.90;;;;;;;18.01;79.55;96131.50;5034504;28;20209;-72
2023/04/29 09:51:32;;;;;;;0.77;0.77;;;;;;;18.10;79.44;96132.81;5034565;28;20197;-72
2023/04/29 09:54:00;;;;;;;1.30;0.80;;;;;;;17.90;76.72;96134.97;5035457;28;20236;-71
2023/04/29 09:56:29;;;;;;;0.90;0.80;;;;;;;17.91;74.74;96133.91;5035290;28;20229;-71
2023/04/29 09:58:56;;;;;;;0.70;0.70;;;;;;;17.81;77.48;96136.28;5034659;28;20262;-70
2023/04/29 10:01:25;;;;;;;0.77;0.77;;;;;;;17.92;76.47;96135.53;5034961;28;20926;-69
2023/04/29 10:03:54;;;;;;;1.10;0.80;;;;;;;17.77;76.86;96130.59;5035429;28;20205;-69
2023/04/29 10:06:22;;;;;;;1.65;0.80;;;;;;;18.07;76.75;96141.28;5035787;28;20768;-69
2023/04/29 10:08:49;;;;;;;0.55;0.55;;;;;;;17.93;72.02;96134.50;5034414;28;20216;-72
2023/04/29 10:11:17;;;;;;;1.33;1.15;;;;;;;17.97;75.28;96141.00;5035143;28;20205;-71
2023/04/29 10:13:45;;;;;;;4.40;0.93;;;;;;;17.75;73.52;96137.19;5034846;28;20221;-71
2023/04/29 10:16:24;;;;;;;0.70;0.70;;;;;;;18.33;78.55;96137.25;5035045;28;20193;-72
2023/04/29 10:18:54;;;;;;;1.20;0.80;;;;;;;18.16;78.60;96135.41;5034584;28;20204;-72
2023/04/29 10:21:24;;;;;;;2.42;1.00;;;;;;;17.79;75.89;96136.53;5035718;28;20202;-71
2023/04/29 10:23:53;;;;;;;0.82;0.60;;;;;;;18.22;76.71;96134.53;5034595;28;20216;-71
2023/04/29 10:26:21;;;;;;;0.85;0.82;;;;;;;18.20;73.95;96141.16;5035438;28;20197;-72
2023/04/29 10:28:51;;;;;;;3.72;0.90;;;;;;;18.27;73.63;96136.53;5034780;28;20236;-70
2023/04/29 10:31:20;;;;;;;0.70;0.70;;;;;;;18.20;72.75;96146.47;5034869;28;20263;-71
2023/04/29 10:33:48;;;;;;;0.65;0.65;;;;;;;18.10;72.92;96140.81;5033688;28;20329;-70
2023/04/29 10:36:15;;;;;;;1.98;0.88;;;;;;;18.23;69.97;96140.69;5035781;28;20366;-73
2023/04/29 10:38:46;;;;;;;0.85;0.60;;;;;;;18.65;70.50;96135.16;5034067;28;20235;-69
2023/04/29 10:41:19;;;;;;;0.57;0.57;;;;;;;18.45;67.15;96135.44;5034649;28;20216;-70
2023/04/29 10:43:46;;;;;;;0.40;0.40;;;;;;;18.69;69.06;96137.13;5034808;28;20201;-72
2023/04/29 10:46:21;;;;;;;0.70;0.52;;;;;;;18.78;74.20;96135.75;5035064;28;20475;-71
2023/04/29 10:48:51;;;;;;;0.70;0.68;;;;;;;18.16;70.10;96140.75;5034150;28;20209;-71
2023/04/29 10:51:33;;;;;;;1.83;0.73;;;;;;;18.54;72.27;96134.06;5035624;28;20201;-70
2023/04/29 10:54:09;;;;;;;1.00;0.75;;;;;;;18.71;70.66;96128.88;5032151;28;20228;-68
2023/04/29 10:56:37;;;;;;;0.80;0.70;;;;;;;18.75;71.90;96127.38;5034540;28;20258;-73
2023/04/29 10:59:04;;;;;;;0.40;0.40;;;;;;;18.59;67.75;96128.84;5033871;28;20205;-71
2023/04/29 11:01:43;;;;;;;0.40;0.40;;;;;;;18.74;67.11;96113.22;5037954;28;20298;-74
2023/04/29 11:04:10;;;;;;;1.27;0.60;;;;;;;18.64;65.79;96128.19;5037771;28;20217;-74
2023/04/29 11:06:52;;;;;;;0.50;0.50;;;;;;;18.89;68.15;96120.78;5038667;28;20200;-75
2023/04/29 11:09:21;;;;;;;0.70;0.63;;;;;;;19.24;68.40;96109.91;5037788;28;20197;-71
2023/04/29 11:11:56;;;;;;;0.40;0.40;;;;;;;19.28;63.43;96104.91;5037666;28;20197;-73
2023/04/29 11:14:25;;;;;;;1.00;0.73;;;;;;;18.56;64.58;96126.66;5037552;28;20229;-75
2023/04/29 11:16:56;;;;;;;0.40;0.40;;;;;;;18.83;63.19;96111.84;5038045;28;20296;-70
2023/04/29 11:19:25;;;;;;;0.40;0.40;;;;;;;18.72;65.14;96128.66;5037243;28;20201;-71
2023/04/29 11:22:11;;;;;;;0.60;0.60;;;;;;;18.19;66.67;96119.00;5037984;28;20699;-71
2023/04/29 11:24:49;;;;;;;0.93;0.57;;;;;;;18.22;67.73;96128.41;5037229;28;20806;-72
2023/04/29 11:27:17;;;;;;;1.65;0.90;;;;;;;18.50;70.00;96122.22;5038026;28;20228;-69
2023/04/29 11:29:45;;;;;;;0.50;0.50;;;;;;;18.54;64.16;96119.91;5037688;28;20221;-73